Time;durP1;ratioP1;P1;durP2;ratioP2;P2;SDS_P1;SDS_P2;PMS_P1;PMS_P2;Temp;Humidity;BMP_temperature;BMP_pressure;BME280_temperature;BME280_humidity;BME280_pressure;Samples;Min_cycle;Max_cycle;Signal;HPM_P1;HPM_P2
2024/04/13 00:00:14;;;;;;;18.43;11.50;;;9.50;99.90;;;;;;5468894;26;20006;-83
2024/04/13 00:02:43;;;;;;;15.90;12.20;;;9.50;99.90;;;;;;5469601;26;20009;-81
2024/04/13 00:05:09;;;;;;;19.00;11.90;;;9.50;99.90;;;;;;5465519;26;20047;-81
2024/04/13 00:07:35;;;;;;;23.00;11.63;;;9.50;99.90;;;;;;5468395;26;19995;-81
2024/04/13 00:10:03;;;;;;;15.87;9.90;;;9.50;99.90;;;;;;5467667;26;20013;-81
2024/04/13 00:12:28;;;;;;;18.23;10.77;;;9.50;99.90;;;;;;5469391;26;19999;-81
2024/04/13 00:14:54;;;;;;;18.73;11.47;;;9.50;99.90;;;;;;5468185;26;20406;-80
2024/04/13 00:17:20;;;;;;;17.73;11.03;;;9.50;99.90;;;;;;5468847;26;19995;-81
2024/04/13 00:19:45;;;;;;;13.83;10.37;;;9.50;99.90;;;;;;5468985;26;20006;-81
2024/04/13 00:22:11;;;;;;;17.23;9.77;;;9.50;99.90;;;;;;5468250;26;20002;-81
2024/04/13 00:24:37;;;;;;;15.07;11.33;;;9.40;99.90;;;;;;5467576;26;20006;-81
2024/04/13 00:27:03;;;;;;;17.23;10.30;;;9.40;99.90;;;;;;5467214;26;20050;-81
2024/04/13 00:29:31;;;;;;;14.33;9.73;;;9.40;99.90;;;;;;5468321;26;21089;-81
2024/04/13 00:31:58;;;;;;;14.07;10.53;;;9.40;99.90;;;;;;5467862;26;20038;-81
2024/04/13 00:34:23;;;;;;;14.63;10.03;;;9.40;99.90;;;;;;5466636;26;20013;-81
2024/04/13 00:36:49;;;;;;;15.07;10.53;;;9.30;99.90;;;;;;5466064;26;21693;-81
2024/04/13 00:39:15;;;;;;;18.73;10.87;;;9.40;99.90;;;;;;5467565;26;20017;-80
2024/04/13 00:41:41;;;;;;;15.23;10.60;;;9.30;99.90;;;;;;5468565;26;20020;-81
2024/04/13 00:44:07;;;;;;;14.13;9.70;;;9.30;99.90;;;;;;5467187;26;19998;-80
2024/04/13 00:46:33;;;;;;;15.77;10.63;;;9.30;99.90;;;;;;5435387;26;20002;-80
2024/04/13 00:48:59;;;;;;;16.90;10.27;;;9.30;99.90;;;;;;5464939;26;20038;-81
2024/04/13 00:51:31;;;;;;;15.87;9.70;;;9.30;99.90;;;;;;5467510;26;20006;-80
2024/04/13 00:53:57;;;;;;;11.83;9.90;;;9.30;99.90;;;;;;5436469;26;20494;-80
2024/04/13 00:56:22;;;;;;;14.67;10.37;;;9.20;99.90;;;;;;5466891;26;20074;-80
2024/04/13 00:58:48;;;;;;;13.30;9.90;;;9.20;99.90;;;;;;5468852;26;20047;-80
2024/04/13 01:01:16;;;;;;;15.30;10.07;;;9.20;99.90;;;;;;5468199;26;20032;-80
2024/04/13 01:03:43;;;;;;;12.33;9.33;;;9.20;99.90;;;;;;5468511;26;20006;-80
2024/04/13 01:06:10;;;;;;;13.33;10.10;;;9.20;99.90;;;;;;5467018;26;20049;-81
2024/04/13 01:08:37;;;;;;;16.97;11.20;;;9.10;99.90;;;;;;5466993;26;20022;-81
2024/04/13 01:11:03;;;;;;;13.03;9.83;;;9.10;99.90;;;;;;5466855;26;20778;-81
2024/04/13 01:13:29;;;;;;;12.40;9.83;;;9.00;99.90;;;;;;5467752;26;20009;-81
2024/04/13 01:15:55;;;;;;;13.73;9.90;;;9.00;99.90;;;;;;5465849;26;20002;-81
2024/04/13 01:18:20;;;;;;;13.80;10.40;;;9.00;99.90;;;;;;5466974;26;20002;-81
2024/04/13 01:20:46;;;;;;;12.60;9.40;;;8.90;99.90;;;;;;5466516;26;20021;-81
2024/04/13 01:23:14;;;;;;;16.27;10.10;;;8.90;99.90;;;;;;5466979;26;20008;-80
2024/04/13 01:25:43;;;;;;;11.70;9.23;;;8.90;99.90;;;;;;5466921;26;20117;-81
2024/04/13 01:28:09;;;;;;;12.87;9.50;;;8.80;99.90;;;;;;5466560;26;19990;-81
2024/04/13 01:30:35;;;;;;;16.87;10.30;;;8.80;99.90;;;;;;5466255;26;20078;-81
2024/04/13 01:33:02;;;;;;;13.80;9.73;;;8.80;99.90;;;;;;5466876;26;19999;-81
2024/04/13 01:35:28;;;;;;;16.87;10.47;;;8.80;99.90;;;;;;5465239;26;20103;-81
2024/04/13 01:37:53;;;;;;;14.70;10.60;;;8.80;99.90;;;;;;5467155;26;20003;-81
2024/04/13 01:40:19;;;;;;;11.80;8.67;;;8.70;99.90;;;;;;5467050;26;20006;-80
2024/04/13 01:42:45;;;;;;;14.47;10.53;;;8.70;99.90;;;;;;5467348;26;20801;-81
2024/04/13 01:45:11;;;;;;;15.27;10.60;;;8.70;99.90;;;;;;5468627;26;20006;-81
2024/04/13 01:47:37;;;;;;;14.80;10.83;;;8.70;99.90;;;;;;5466678;26;20021;-81
2024/04/13 01:50:03;;;;;;;14.60;10.30;;;8.70;99.90;;;;;;5466513;26;20006;-81
2024/04/13 01:52:29;;;;;;;17.97;11.23;;;8.60;99.90;;;;;;5466364;26;20005;-81
2024/04/13 01:54:55;;;;;;;13.90;10.57;;;8.60;99.90;;;;;;5465350;26;20554;-81
2024/04/13 01:57:21;;;;;;;14.77;10.57;;;8.60;99.90;;;;;;5466566;26;20006;-81
2024/04/13 01:59:47;;;;;;;14.57;10.43;;;8.50;99.90;;;;;;5464508;26;20006;-81
2024/04/13 02:02:12;;;;;;;13.57;10.63;;;8.50;99.90;;;;;;5466335;26;20017;-80
2024/04/13 02:04:38;;;;;;;17.20;10.10;;;8.50;99.90;;;;;;5466223;26;20017;-81
2024/04/13 02:07:05;;;;;;;16.80;10.27;;;8.50;99.90;;;;;;5464579;26;20030;-80
2024/04/13 02:09:31;;;;;;;12.17;10.00;;;8.50;99.90;;;;;;5465406;26;20005;-81
2024/04/13 02:11:56;;;;;;;14.83;10.27;;;8.40;99.90;;;;;;5466470;26;20434;-81
2024/04/13 02:14:22;;;;;;;12.17;9.90;;;8.40;99.90;;;;;;5466411;26;20002;-81
2024/04/13 02:16:50;;;;;;;14.33;10.07;;;8.40;99.90;;;;;;5465099;26;20087;-81
2024/04/13 02:19:16;;;;;;;14.30;10.30;;;8.30;99.90;;;;;;5465604;26;20009;-81
2024/04/13 02:21:41;;;;;;;14.67;10.60;;;8.30;99.90;;;;;;5465602;26;20020;-80
2024/04/13 02:24:07;;;;;;;15.77;10.53;;;8.30;99.90;;;;;;5464866;26;19999;-80
2024/04/13 02:26:33;;;;;;;14.53;11.27;;;8.20;99.90;;;;;;5465720;26;19994;-80
2024/04/13 02:28:59;;;;;;;16.30;11.63;;;8.20;99.90;;;;;;5465038;26;20442;-81
2024/04/13 02:31:25;;;;;;;16.60;11.90;;;8.20;99.90;;;;;;5466894;26;20006;-80
2024/04/13 02:33:51;;;;;;;16.33;12.70;;;8.10;99.90;;;;;;5465570;26;20646;-81
2024/04/13 02:36:16;;;;;;;18.50;12.70;;;8.10;99.90;;;;;;5464169;26;20087;-80
2024/04/13 02:38:42;;;;;;;15.47;12.10;;;8.10;99.90;;;;;;5433438;26;19994;-80
2024/04/13 02:41:08;;;;;;;15.47;12.20;;;8.10;99.90;;;;;;5434680;26;20860;-80
2024/04/13 02:43:35;;;;;;;17.33;11.40;;;8.00;99.90;;;;;;5465286;26;21060;-82
2024/04/13 02:46:09;;;;;;;15.97;12.23;;;8.00;99.90;;;;;;5465246;26;20005;-80
2024/04/13 02:48:42;;;;;;;16.17;11.87;;;8.00;99.90;;;;;;5433137;26;20096;-81
2024/04/13 02:51:08;;;;;;;15.60;12.30;;;8.00;99.90;;;;;;5465304;26;20458;-80
2024/04/13 02:53:35;;;;;;;15.30;13.17;;;7.90;99.90;;;;;;5464701;26;20030;-82
2024/04/13 02:56:01;;;;;;;15.03;12.47;;;7.90;99.90;;;;;;5466843;26;20017;-81
2024/04/13 02:58:27;;;;;;;21.17;13.07;;;7.90;99.90;;;;;;5464911;26;20042;-80
2024/04/13 03:00:54;;;;;;;16.43;12.03;;;7.90;99.90;;;;;;5464743;26;20001;-80
2024/04/13 03:03:20;;;;;;;15.97;12.37;;;7.90;99.90;;;;;;5465714;26;20013;-81
2024/04/13 03:05:46;;;;;;;17.13;12.50;;;7.90;99.90;;;;;;5464781;26;20002;-80
2024/04/13 03:08:11;;;;;;;15.33;11.77;;;7.90;99.90;;;;;;5465237;26;20025;-80
2024/04/13 03:10:37;;;;;;;14.10;11.03;;;7.90;99.90;;;;;;5464935;26;19995;-80
2024/04/13 03:13:03;;;;;;;19.10;11.53;;;7.90;99.90;;;;;;5464486;26;20025;-81
2024/04/13 03:15:29;;;;;;;14.70;11.87;;;7.80;99.90;;;;;;5464389;26;20473;-81
2024/04/13 03:17:54;;;;;;;14.03;11.37;;;7.80;99.90;;;;;;5465654;26;20094;-81
2024/04/13 03:20:20;;;;;;;15.50;12.03;;;7.80;99.90;;;;;;5464914;26;20098;-80
2024/04/13 03:22:46;;;;;;;16.23;12.53;;;7.80;99.90;;;;;;5464518;26;20486;-82
2024/04/13 03:25:11;;;;;;;14.00;10.63;;;7.80;99.90;;;;;;5465537;26;20011;-81
2024/04/13 03:27:37;;;;;;;13.63;11.50;;;7.80;99.90;;;;;;5464368;26;20013;-80
2024/04/13 03:30:04;;;;;;;14.50;10.67;;;7.80;99.90;;;;;;5463907;26;20010;-80
2024/04/13 03:32:29;;;;;;;17.10;11.70;;;7.80;99.90;;;;;;5464602;26;20017;-80
2024/04/13 03:34:55;;;;;;;14.07;11.23;;;7.70;99.90;;;;;;5464854;26;20041;-80
2024/04/13 03:37:20;;;;;;;16.93;10.87;;;7.80;99.90;;;;;;5466024;25;19994;-80
2024/04/13 03:39:46;;;;;;;16.40;10.67;;;7.80;99.90;;;;;;5464437;26;20116;-81
2024/04/13 03:42:11;;;;;;;14.67;10.00;;;7.80;99.90;;;;;;5464494;26;20574;-80
2024/04/13 03:44:37;;;;;;;16.80;10.73;;;7.80;99.90;;;;;;5463945;26;20066;-80
2024/04/13 03:47:03;;;;;;;14.73;10.33;;;7.70;99.90;;;;;;5463335;26;20010;-81
2024/04/13 03:49:30;;;;;;;13.23;10.10;;;7.70;99.90;;;;;;5464643;26;20014;-81
2024/04/13 03:51:56;;;;;;;15.33;10.93;;;7.70;99.90;;;;;;5464182;26;20014;-80
2024/04/13 03:54:21;;;;;;;17.40;11.03;;;7.70;99.90;;;;;;5464862;26;20053;-80
2024/04/13 03:56:48;;;;;;;16.73;12.23;;;7.70;99.90;;;;;;5463370;26;20049;-81
2024/04/13 03:59:13;;;;;;;14.43;11.27;;;7.70;99.90;;;;;;5463719;26;20021;-80
2024/04/13 04:01:39;;;;;;;17.00;11.30;;;7.70;99.90;;;;;;5463525;26;20009;-81
2024/04/13 04:04:05;;;;;;;17.73;11.30;;;7.70;99.90;;;;;;5463593;26;20006;-81
2024/04/13 04:06:30;;;;;;;15.90;11.47;;;7.70;99.90;;;;;;5462008;26;20743;-80
2024/04/13 04:08:56;;;;;;;15.00;11.57;;;7.70;99.90;;;;;;5462888;26;20020;-80
2024/04/13 04:11:21;;;;;;;14.40;11.30;;;7.70;99.90;;;;;;5462942;26;20538;-80
2024/04/13 04:13:47;;;;;;;15.83;11.53;;;7.70;99.90;;;;;;5462889;26;20004;-81
2024/04/13 04:16:12;;;;;;;15.93;11.53;;;7.70;99.90;;;;;;5462435;26;21818;-81
2024/04/13 04:18:40;;;;;;;17.23;11.47;;;7.70;99.90;;;;;;5462828;26;20064;-80
2024/04/13 04:21:08;;;;;;;12.80;10.73;;;7.70;99.90;;;;;;5461631;26;20002;-81
2024/04/13 04:23:34;;;;;;;13.00;10.90;;;7.70;99.90;;;;;;5465032;26;20009;-81
2024/04/13 04:26:01;;;;;;;13.97;11.40;;;7.70;99.90;;;;;;5466707;26;19994;-80
2024/04/13 04:28:27;;;;;;;12.53;10.10;;;7.70;99.90;;;;;;5467849;26;20002;-81
2024/04/13 04:30:53;;;;;;;13.20;11.10;;;7.70;99.90;;;;;;5468190;26;20009;-80
2024/04/13 04:33:18;;;;;;;16.27;10.30;;;7.70;99.90;;;;;;5467706;26;20002;-80
2024/04/13 04:35:44;;;;;;;14.87;11.57;;;7.70;99.90;;;;;;5436340;26;20006;-80
2024/04/13 04:38:12;;;;;;;13.10;10.47;;;7.70;99.90;;;;;;5466282;26;20013;-81
2024/04/13 04:40:38;;;;;;;20.80;10.53;;;7.70;99.90;;;;;;5468304;26;20077;-80
2024/04/13 04:43:04;;;;;;;18.17;10.10;;;7.70;99.90;;;;;;5466349;26;20063;-77
2024/04/13 04:45:29;;;;;;;13.17;9.70;;;7.70;99.90;;;;;;5467525;26;20006;-81
2024/04/13 04:47:55;;;;;;;13.53;9.67;;;7.70;99.90;;;;;;5467871;26;21670;-81
2024/04/13 04:50:21;;;;;;;15.27;9.67;;;7.60;99.90;;;;;;5465797;26;20013;-81
2024/04/13 04:52:46;;;;;;;19.53;9.97;;;7.70;99.90;;;;;;5467126;26;20005;-82
2024/04/13 04:55:12;;;;;;;13.47;10.10;;;7.60;99.90;;;;;;5466173;26;20002;-81
2024/04/13 04:57:37;;;;;;;12.90;9.73;;;7.60;99.90;;;;;;5465561;26;20006;-81
2024/04/13 05:00:04;;;;;;;13.10;10.50;;;7.70;99.90;;;;;;5464585;26;20021;-80
2024/04/13 05:02:30;;;;;;;16.90;10.80;;;7.70;99.90;;;;;;5466288;26;20005;-81
2024/04/13 05:04:56;;;;;;;13.10;9.50;;;7.70;99.90;;;;;;5467143;26;20005;-82
2024/04/13 05:07:21;;;;;;;16.73;10.70;;;7.70;99.90;;;;;;5466564;26;20006;-81
2024/04/13 05:09:47;;;;;;;11.80;9.40;;;7.80;99.90;;;;;;5466552;26;20017;-80
2024/04/13 05:12:12;;;;;;;16.00;10.57;;;7.80;99.90;;;;;;5434718;26;20374;-81
2024/04/13 05:14:38;;;;;;;15.03;10.90;;;7.80;99.90;;;;;;5466621;26;20007;-82
2024/04/13 05:17:03;;;;;;;12.83;10.10;;;7.90;99.90;;;;;;5435048;26;20332;-82
2024/04/13 05:19:30;;;;;;;13.87;9.40;;;7.90;99.90;;;;;;5467310;26;21588;-83
2024/04/13 05:21:56;;;;;;;12.27;9.83;;;7.90;99.90;;;;;;5466772;26;20017;-82
2024/04/13 05:24:21;;;;;;;15.13;10.30;;;8.00;99.90;;;;;;5467396;26;19990;-82
2024/04/13 05:26:48;;;;;;;11.93;8.87;;;8.00;99.90;;;;;;5466819;26;20024;-83
2024/04/13 05:29:13;;;;;;;15.57;10.33;;;8.10;99.90;;;;;;5467329;26;19991;-82
2024/04/13 05:31:39;;;;;;;16.00;9.70;;;8.10;99.90;;;;;;5466254;26;20016;-83
2024/04/13 05:34:06;;;;;;;16.50;9.87;;;8.20;99.90;;;;;;5465223;26;20475;-83
2024/04/13 05:36:31;;;;;;;12.57;9.77;;;8.20;99.90;;;;;;5465459;26;21787;-83
2024/04/13 05:38:57;;;;;;;12.03;10.10;;;8.30;99.90;;;;;;5465224;26;20006;-82
2024/04/13 05:41:23;;;;;;;12.27;10.13;;;8.40;99.90;;;;;;5467009;26;19998;-83
2024/04/13 05:43:48;;;;;;;10.67;8.83;;;8.50;99.90;;;;;;5465368;26;20114;-83
2024/04/13 05:46:14;;;;;;;12.57;9.40;;;8.60;99.90;;;;;;5466519;26;20082;-83
2024/04/13 05:48:39;;;;;;;14.30;9.37;;;8.70;99.90;;;;;;5466127;26;20080;-83
2024/04/13 05:51:05;;;;;;;11.23;9.27;;;8.80;99.90;;;;;;5464851;26;20103;-83
2024/04/13 05:53:31;;;;;;;11.07;9.03;;;8.90;99.90;;;;;;5466570;26;20136;-83
2024/04/13 05:55:57;;;;;;;15.07;9.00;;;9.00;99.90;;;;;;5465162;26;20009;-83
2024/04/13 05:58:22;;;;;;;15.13;8.27;;;9.20;99.90;;;;;;5467566;26;20000;-83
2024/04/13 06:00:48;;;;;;;11.00;8.27;;;9.30;99.90;;;;;;5464042;26;20006;-83
2024/04/13 06:03:14;;;;;;;12.73;7.87;;;9.50;99.90;;;;;;5463846;26;19998;-83
2024/04/13 06:05:42;;;;;;;13.87;7.70;;;9.70;99.90;;;;;;5464109;26;20009;-83
2024/04/13 06:08:09;;;;;;;8.77;6.60;;;9.90;99.90;;;;;;5463954;26;20427;-83
2024/04/13 06:10:35;;;;;;;9.80;6.77;;;10.10;99.90;;;;;;5465800;26;20198;-83
2024/04/13 06:13:00;;;;;;;12.43;6.77;;;10.30;99.90;;;;;;5465334;26;21729;-86
2024/04/13 06:15:26;;;;;;;9.77;6.67;;;10.50;99.90;;;;;;5466997;26;20097;-86
2024/04/13 06:17:51;;;;;;;15.87;7.23;;;10.70;99.90;;;;;;5467069;26;20576;-85
2024/04/13 06:20:17;;;;;;;12.10;6.80;;;10.90;99.90;;;;;;5468452;26;20006;-86
2024/04/13 06:22:42;;;;;;;13.90;7.43;;;11.10;99.90;;;;;;5466566;26;21454;-86
2024/04/13 06:25:10;;;;;;;10.67;6.27;;;11.30;99.90;;;;;;5464391;26;20470;-85
2024/04/13 06:27:37;;;;;;;8.53;6.23;;;11.40;99.90;;;;;;5463474;26;20005;-86
2024/04/13 06:30:03;;;;;;;13.03;5.67;;;11.50;99.90;;;;;;5466521;26;20006;-82
2024/04/13 06:32:28;;;;;;;9.10;5.77;;;11.70;99.90;;;;;;5466222;26;20115;-85
2024/04/13 06:34:54;;;;;;;9.05;5.65;;;11.80;99.90;;;;;;5464046;26;20049;-86
2024/04/13 06:37:20;;;;;;;9.77;5.30;;;11.90;99.90;;;;;;5466427;26;20483;-88
2024/04/13 06:39:45;;;;;;;7.40;4.90;;;12.00;99.90;;;;;;5434454;26;20017;-86
2024/04/13 06:42:11;;;;;;;8.27;5.30;;;12.10;99.90;;;;;;5469024;26;20002;-85
2024/04/13 06:44:37;;;;;;;7.57;5.40;;;12.20;99.90;;;;;;5470330;26;20409;-87
2024/04/13 06:47:03;;;;;;;8.40;5.22;;;12.30;99.90;;;;;;5467479;26;20009;-86
2024/04/13 06:49:29;;;;;;;6.97;4.65;;;12.40;99.90;;;;;;5470379;26;20077;-87
2024/04/13 06:51:54;;;;;;;9.05;4.72;;;12.50;99.90;;;;;;5470405;26;20013;-86
2024/04/13 06:54:20;;;;;;;8.13;5.78;;;12.70;99.90;;;;;;5469468;26;20042;-85
2024/04/13 06:56:45;;;;;;;13.63;5.35;;;12.80;99.90;;;;;;5470768;26;19998;-85
2024/04/13 06:59:11;;;;;;;6.70;4.82;;;13.00;99.90;;;;;;5468700;26;20009;-87
2024/04/13 07:01:37;;;;;;;8.77;4.50;;;13.00;99.90;;;;;;5468247;26;20116;-84
2024/04/13 07:04:03;;;;;;;4.75;3.92;;;13.20;99.90;;;;;;5466122;26;19999;-84
2024/04/13 07:06:31;;;;;;;5.85;4.95;;;13.30;99.90;;;;;;5464689;26;20075;-84
2024/04/13 07:08:56;;;;;;;10.30;5.00;;;13.40;99.90;;;;;;5466357;26;20016;-84
2024/04/13 07:11:22;;;;;;;11.23;5.07;;;13.40;99.90;;;;;;5433645;26;20010;-84
2024/04/13 07:13:47;;;;;;;8.32;4.85;;;13.50;99.90;;;;;;5466371;26;20042;-84
2024/04/13 07:16:13;;;;;;;7.70;5.05;;;13.60;99.90;;;;;;5463719;26;20363;-73
2024/04/13 07:18:39;;;;;;;7.50;4.63;;;13.70;99.90;;;;;;5460272;26;20463;-79
2024/04/13 07:21:04;;;;;;;9.40;5.43;;;13.70;99.90;;;;;;5461913;26;20474;-73
2024/04/13 07:23:30;;;;;;;8.05;4.80;;;13.80;99.90;;;;;;5461035;26;19994;-73
2024/04/13 07:26:03;;;;;;;8.18;4.47;;;13.90;99.90;;;;;;5460570;26;20017;-76
2024/04/13 07:28:30;;;;;;;10.23;4.95;;;14.00;99.90;;;;;;5461248;26;20018;-72
2024/04/13 07:30:56;;;;;;;9.80;4.65;;;14.10;99.90;;;;;;5461359;26;20002;-74
2024/04/13 07:33:22;;;;;;;9.45;4.97;;;14.20;99.90;;;;;;5456928;26;20005;-75
2024/04/13 07:35:48;;;;;;;6.28;5.00;;;14.20;99.90;;;;;;5454073;26;20678;-75
2024/04/13 07:38:14;;;;;;;8.25;5.25;;;14.30;99.90;;;;;;5462214;26;20017;-84
2024/04/13 07:40:39;;;;;;;9.38;4.90;;;14.40;99.90;;;;;;5461938;26;19998;-84
2024/04/13 07:43:05;;;;;;;7.50;5.15;;;14.40;99.90;;;;;;5431454;26;20124;-84
2024/04/13 07:45:31;;;;;;;11.82;5.45;;;14.50;99.90;;;;;;5466538;26;20008;-83
2024/04/13 07:47:56;;;;;;;8.15;5.13;;;14.60;99.90;;;;;;5469698;26;20060;-81
2024/04/13 07:50:22;;;;;;;10.95;5.50;;;14.70;99.90;;;;;;5465776;26;20002;-82
2024/04/13 07:52:48;;;;;;;9.68;4.88;;;14.90;99.90;;;;;;5465222;26;20010;-83
2024/04/13 07:55:14;;;;;;;11.23;4.95;;;15.00;99.90;;;;;;5466897;26;21807;-83
2024/04/13 07:57:40;;;;;;;15.15;5.65;;;15.10;99.90;;;;;;5467154;26;20048;-82
2024/04/13 08:00:06;;;;;;;12.32;6.05;;;15.30;99.90;;;;;;5472090;26;20071;-83
2024/04/13 08:02:32;;;;;;;9.57;5.70;;;15.40;99.90;;;;;;5473046;26;20028;-82
2024/04/13 08:04:58;;;;;;;10.90;5.93;;;15.50;99.90;;;;;;5470541;26;20002;-82
2024/04/13 08:07:23;;;;;;;12.10;6.28;;;15.70;99.90;;;;;;5468751;26;20022;-82
2024/04/13 08:09:49;;;;;;;9.35;5.97;;;15.80;99.90;;;;;;5468396;26;21821;-84
2024/04/13 08:12:14;;;;;;;13.23;6.50;;;16.00;99.90;;;;;;5469996;26;20001;-83
2024/04/13 08:14:40;;;;;;;11.60;6.25;;;16.00;99.90;;;;;;5469754;26;20021;-83
2024/04/13 08:17:07;;;;;;;12.48;5.00;;;16.10;99.90;;;;;;5469117;26;19994;-82
2024/04/13 08:19:32;;;;;;;11.32;5.50;;;16.20;99.90;;;;;;5468039;26;20002;-83
2024/04/13 08:21:58;;;;;;;10.93;5.97;;;16.30;99.90;;;;;;5470916;26;20009;-82
2024/04/13 08:24:23;;;;;;;13.90;5.95;;;16.50;99.90;;;;;;5436388;26;20011;-83
2024/04/13 08:26:50;;;;;;;11.18;5.68;;;16.60;99.90;;;;;;5467960;26;20013;-83
2024/04/13 08:29:16;;;;;;;11.27;5.40;;;16.70;99.90;;;;;;5468194;26;20020;-83
2024/04/13 08:31:42;;;;;;;10.07;5.07;;;16.80;99.90;;;;;;5469648;26;20002;-83
2024/04/13 08:34:07;;;;;;;13.20;5.88;;;16.80;99.90;;;;;;5469544;26;20447;-83
2024/04/13 08:36:33;;;;;;;9.95;5.55;;;17.00;99.90;;;;;;5469524;26;20021;-83
2024/04/13 08:38:58;;;;;;;14.10;5.53;;;17.10;99.90;;;;;;5469809;26;20071;-83
2024/04/13 08:41:35;;;;;;;10.27;5.70;;;17.30;99.90;;;;;;5469407;26;20006;-83
2024/04/13 08:44:01;;;;;;;10.77;5.88;;;17.40;99.90;;;;;;5435300;26;20009;-83
2024/04/13 08:46:26;;;;;;;8.93;6.03;;;17.50;99.90;;;;;;5469072;26;20099;-83
2024/04/13 08:48:53;;;;;;;12.30;6.80;;;17.60;99.90;;;;;;5468932;26;20013;-83
2024/04/13 08:51:19;;;;;;;12.20;6.32;;;17.70;99.90;;;;;;5468652;26;20010;-83
2024/04/13 08:53:49;;;;;;;8.30;5.45;;;17.70;99.90;;;;;;5469628;26;20026;-83
2024/04/13 08:56:17;;;;;;;10.13;5.88;;;17.80;99.90;;;;;;5467982;26;20002;-83
2024/04/13 08:58:46;;;;;;;9.35;5.47;;;18.00;99.90;;;;;;5467655;26;20071;-83
2024/04/13 09:01:15;;;;;;;10.70;5.70;;;18.00;99.90;;;;;;5470369;26;20038;-83
2024/04/13 09:03:41;;;;;;;12.20;5.68;;;18.10;99.90;;;;;;5470619;26;21224;-83
2024/04/13 09:06:08;;;;;;;9.35;5.75;;;18.20;99.90;;;;;;5469177;26;20002;-83
2024/04/13 09:08:35;;;;;;;10.13;5.63;;;18.40;99.90;;;;;;5467805;26;20120;-83
2024/04/13 09:11:05;;;;;;;11.55;4.82;;;18.70;99.90;;;;;;5468873;26;19994;-82
2024/04/13 09:13:31;;;;;;;12.15;5.13;;;18.80;99.90;;;;;;5468190;26;20014;-83
2024/04/13 09:15:58;;;;;;;12.60;4.85;;;19.00;99.90;;;;;;5468605;26;20074;-83
2024/04/13 09:18:23;;;;;;;9.93;4.97;;;19.20;99.90;;;;;;5468126;26;20039;-83
2024/04/13 09:20:49;;;;;;;9.65;5.05;;;19.40;99.90;;;;;;5467941;26;20011;-83
2024/04/13 09:23:17;;;;;;;16.42;5.03;;;19.60;99.90;;;;;;5468802;26;20002;-83
2024/04/13 09:25:42;;;;;;;7.80;5.50;;;19.70;99.90;;;;;;5433878;26;20006;-83
2024/04/13 09:28:08;;;;;;;8.45;4.55;;;19.80;99.90;;;;;;5467338;26;20013;-83
2024/04/13 09:30:34;;;;;;;11.20;4.25;;;20.10;99.90;;;;;;5468339;26;20690;-83
2024/04/13 09:33:06;;;;;;;8.45;3.85;;;20.20;99.90;;;;;;5468489;26;20014;-83
2024/04/13 09:35:32;;;;;;;7.18;4.20;;;20.30;99.90;;;;;;5468395;26;19998;-83
2024/04/13 09:37:58;;;;;;;10.63;5.50;;;20.60;99.90;;;;;;5469232;26;20008;-83
2024/04/13 09:40:24;;;;;;;7.82;4.93;;;20.80;99.90;;;;;;5469115;26;20663;-83
2024/04/13 09:42:49;;;;;;;9.02;5.03;;;21.00;99.90;;;;;;5468996;26;20017;-83
2024/04/13 09:45:15;;;;;;;9.57;5.15;;;21.00;99.90;;;;;;5467320;26;21797;-84
2024/04/13 09:47:40;;;;;;;8.70;4.78;;;21.10;99.90;;;;;;5468051;26;20002;-83
2024/04/13 09:50:06;;;;;;;9.90;5.00;;;21.30;99.90;;;;;;5468268;26;20036;-83
2024/04/13 09:52:32;;;;;;;8.23;4.20;;;21.50;99.90;;;;;;5468998;26;20045;-83
2024/04/13 09:55:02;;;;;;;9.80;4.70;;;21.80;99.90;;;;;;5468406;26;20032;-83
2024/04/13 09:57:27;;;;;;;12.43;5.18;;;21.90;99.90;;;;;;5469136;26;20311;-83
2024/04/13 09:59:54;;;;;;;9.45;4.72;;;21.90;99.90;;;;;;5468773;26;20017;-83
2024/04/13 10:02:20;;;;;;;9.32;4.93;;;21.90;99.90;;;;;;5468062;26;21507;-83
2024/04/13 10:04:46;;;;;;;8.52;4.90;;;21.80;99.90;;;;;;5469136;26;20006;-83
2024/04/13 10:07:13;;;;;;;8.15;4.80;;;22.00;99.90;;;;;;5468151;26;19994;-83
2024/04/13 10:09:50;;;;;;;7.60;4.40;;;22.00;99.90;;;;;;5469400;26;20009;-83
2024/04/13 10:12:28;;;;;;;7.53;4.68;;;22.20;99.90;;;;;;5468874;26;20006;-83
2024/04/13 10:14:57;;;;;;;7.63;4.85;;;22.30;99.90;;;;;;5467469;26;20017;-83
2024/04/13 10:17:23;;;;;;;12.30;4.97;;;22.40;99.90;;;;;;5468321;26;20021;-83
2024/04/13 10:19:48;;;;;;;7.95;5.10;;;22.40;99.90;;;;;;5468431;26;19994;-83
2024/04/13 10:22:14;;;;;;;8.70;4.30;;;22.60;99.90;;;;;;5468578;26;20002;-83
2024/04/13 10:24:45;;;;;;;10.65;4.55;;;22.70;99.90;;;;;;5489168;26;20030;-83
2024/04/13 10:27:12;;;;;;;8.93;4.22;;;22.80;99.90;;;;;;5468759;26;20098;-83
2024/04/13 10:29:45;;;;;;;7.50;4.40;;;22.80;99.90;;;;;;5470222;26;20006;-83
2024/04/13 10:32:19;;;;;;;9.35;4.25;;;22.80;99.90;;;;;;5470455;26;19994;-83
2024/04/13 10:34:45;;;;;;;;;;;22.90;99.90;;;;;;5471136;26;19994;-83
2024/04/13 10:37:30;;;;;;;8.10;4.60;;;23.00;99.90;;;;;;5433090;26;20368;-83
2024/04/13 10:40:00;;;;;;;6.63;4.43;;;23.20;99.90;;;;;;5469443;26;19999;-83
2024/04/13 10:42:43;;;;;;;10.23;4.22;;;23.40;99.90;;;;;;5468068;26;20006;-83
2024/04/13 10:45:19;;;;;;;8.88;4.40;;;23.50;99.90;;;;;;5402098;26;20060;-83
2024/04/13 10:47:46;;;;;;;9.10;3.88;;;23.50;99.90;;;;;;5468443;26;20447;-83
2024/04/13 10:50:16;;;;;;;9.02;3.53;;;23.50;99.90;;;;;;5467358;26;20014;-83
2024/04/13 10:52:44;;;;;;;6.13;3.47;;;23.80;99.90;;;;;;5467016;26;20357;-83
2024/04/13 10:55:17;;;;;;;8.73;3.45;;;24.00;99.90;;;;;;5467548;26;19998;-84
2024/04/13 10:57:43;;;;;;;9.93;3.55;;;24.20;99.90;;;;;;5468080;26;20009;-83
2024/04/13 11:00:09;;;;;;;5.63;2.90;;;24.30;99.90;;;;;;5460066;26;20038;-79
2024/04/13 11:02:37;;;;;;;6.95;3.78;;;24.50;99.90;;;;;;5457497;26;20051;-72
2024/04/13 11:05:03;;;;;;;9.35;2.95;;;24.80;99.90;;;;;;5452482;26;20412;-72
2024/04/13 11:07:30;;;;;;;9.25;2.90;;;24.70;99.90;;;;;;5456078;26;21333;-72
2024/04/13 11:09:55;;;;;;;7.88;3.08;;;24.70;99.90;;;;;;5454068;26;20018;-72
2024/04/13 11:12:22;;;;;;;8.30;2.85;;;24.70;99.90;;;;;;5458007;26;20153;-72
2024/04/13 11:14:49;;;;;;;8.88;2.67;;;24.80;99.90;;;;;;5459938;26;20367;-73
2024/04/13 11:17:14;;;;;;;8.20;2.90;;;24.80;99.90;;;;;;5457898;26;20002;-72
2024/04/13 11:19:40;;;;;;;6.15;2.30;;;24.70;99.90;;;;;;5459544;26;20095;-71
2024/04/13 11:22:09;;;;;;;4.78;2.20;;;24.80;99.90;;;;;;5461187;26;20026;-75
2024/04/13 11:24:38;;;;;;;28.58;7.13;;;24.80;99.90;;;;;;5459351;26;20046;-70
2024/04/13 11:27:04;;;;;;;16.25;4.45;;;25.10;99.90;;;;;;5458956;26;20138;-71
2024/04/13 11:29:32;;;;;;;20.23;4.55;;;25.20;99.90;;;;;;5461021;26;20006;-74
2024/04/13 11:31:58;;;;;;;5.55;2.35;;;25.40;99.90;;;;;;5461526;26;19998;-71
2024/04/13 11:34:24;;;;;;;6.95;1.90;;;25.40;99.90;;;;;;5462478;26;20086;-73
2024/04/13 11:36:49;;;;;;;6.05;1.92;;;25.50;99.90;;;;;;5463243;26;20013;-71
2024/04/13 11:39:15;;;;;;;3.83;1.70;;;25.70;99.90;;;;;;5461337;26;20025;-72
2024/04/13 11:41:40;;;;;;;6.75;1.95;;;25.90;99.90;;;;;;5464452;26;20075;-72
2024/04/13 11:44:07;;;;;;;5.80;2.03;;;25.90;99.80;;;;;;5462879;26;21703;-71
2024/04/13 11:46:32;;;;;;;4.63;2.10;;;25.90;99.00;;;;;;5462859;26;20021;-71
2024/04/13 11:48:58;;;;;;;4.30;2.40;;;25.80;99.50;;;;;;5464385;26;20005;-72
2024/04/13 11:51:27;;;;;;;5.72;1.63;;;25.90;98.50;;;;;;5464321;26;20010;-73
2024/04/13 11:53:54;;;;;;;6.60;2.35;;;26.00;98.70;;;;;;5464797;26;20010;-71
2024/04/13 11:56:19;;;;;;;8.20;2.10;;;26.20;99.10;;;;;;5463384;26;20033;-71
2024/04/13 11:58:47;;;;;;;5.75;1.77;;;26.50;97.40;;;;;;5463325;26;20111;-71
2024/04/13 12:01:13;;;;;;;6.10;2.45;;;26.50;97.40;;;;;;5465018;26;21295;-71
2024/04/13 12:03:38;;;;;;;4.75;1.70;;;26.70;99.30;;;;;;5460941;26;20058;-71
2024/04/13 12:06:05;;;;;;;5.13;2.00;;;26.70;98.90;;;;;;5460082;26;20025;-71
2024/04/13 12:08:30;;;;;;;8.05;2.10;;;27.00;97.20;;;;;;5460580;26;20010;-72
2024/04/13 12:10:57;;;;;;;8.93;2.03;;;27.20;97.80;;;;;;5460852;26;20011;-73
2024/04/13 12:13:23;;;;;;;4.53;2.15;;;27.00;97.00;;;;;;5461221;26;20385;-72
2024/04/13 12:15:49;;;;;;;5.07;1.70;;;26.90;96.80;;;;;;5459679;26;20006;-73
2024/04/13 12:18:14;;;;;;;4.18;1.85;;;26.90;96.70;;;;;;5461788;26;20651;-71
2024/04/13 12:20:40;;;;;;;8.23;1.95;;;26.90;96.10;;;;;;5458949;26;20336;-72
2024/04/13 12:23:06;;;;;;;5.97;2.00;;;27.00;96.00;;;;;;5460474;26;20002;-72
2024/04/13 12:25:31;;;;;;;4.22;2.00;;;26.80;96.40;;;;;;5460812;26;20019;-73
2024/04/13 12:27:59;;;;;;;7.10;1.50;;;26.70;97.10;;;;;;5461653;26;20007;-73
2024/04/13 12:30:24;;;;;;;5.55;2.03;;;26.60;95.70;;;;;;5462125;26;20016;-76
2024/04/13 12:32:50;;;;;;;5.13;1.70;;;26.70;96.30;;;;;;5463943;26;19998;-72
2024/04/13 12:35:17;;;;;;;8.90;1.77;;;26.80;96.80;;;;;;5461839;26;20120;-82
2024/04/13 12:37:44;;;;;;;5.47;1.50;;;26.70;96.80;;;;;;5460890;26;20002;-72